KTTD

Portland-Troutdale Airport

Portland, Oregon, USA
KTTD 171731Z 1718/1818 09012G20KT P6SM SKC FM172000 09018G28KT P6SM SKC
Issued Valid From Valid To
Nov-17 @ 17:31 UTC
(4 hours ago)
Nov-17 @ 18:00 UTC
(4 hours ago)
Nov-18 @ 18:00 UTC
(in 20 hours)
Expired Click to View Nov-17 @ 18:00 to Nov-17 @ 20:00
KTTD 171731Z 1718/1818 09012G20KT P6SM SKC
Wind Visibility Clouds
90° at 12 knots
 Gusting to 20 knots
Greater than 6 miles
  • Clear skies
From Nov-17 @ 20:00 to Nov-18 @ 18:00
FM172000 09018G28KT P6SM SKC
Wind Visibility Clouds
90° at 18 knots
 Gusting to 28 knots
Greater than 6 miles
  • Clear skies
KTTD 171731Z 1718/1818 09012G20KT P6SM SKC FM172000 09018G28KT P6SM SKC
Issued Nov-17 @ 17:31 UTC
(4 hours ago)
Valid From Nov-17 @ 18:00 UTC
(4 hours ago)
Valid To Nov-18 @ 18:00 UTC
(in 20 hours)
Nov-17 @ 18:00 - Nov-17 @ 20:00
Wind Visibility
90° at 12 knots
 Gusting to 20 knots
Greater than 6 miles
Clouds
  • Clear skies
From Nov-17 @ 20:00 - Nov-18 @ 18:00
Wind Visibility
90° at 18 knots
 Gusting to 28 knots
Greater than 6 miles
Clouds
  • Clear skies